createdAt,value
2023-11-30T00:00:42.299Z,97567.47
2023-11-30T00:03:09.349Z,97557.28
2023-11-30T00:05:36.183Z,97568.75
2023-11-30T00:08:03.144Z,97594.34
2023-11-30T00:10:29.961Z,97584.44
2023-11-30T00:12:56.742Z,97577.53
2023-11-30T00:15:23.669Z,97582.81
2023-11-30T00:17:50.634Z,97576.19
2023-11-30T00:20:17.463Z,97611.13
2023-11-30T00:22:44.343Z,97525.34
2023-11-30T00:25:11.207Z,97612.16
2023-11-30T00:27:38.242Z,97607.00
2023-11-30T00:30:05.689Z,97580.56
2023-11-30T00:32:32.645Z,97607.69
2023-11-30T00:35:00.578Z,97622.88
2023-11-30T00:37:27.446Z,97615.19
2023-11-30T00:39:54.393Z,97583.06
2023-11-30T00:42:22.514Z,97615.19
2023-11-30T00:44:49.483Z,97626.19
2023-11-30T00:47:16.493Z,97594.69
2023-11-30T00:49:43.389Z,97554.22
2023-11-30T00:52:10.187Z,97564.06
2023-11-30T00:54:36.956Z,97620.34
2023-11-30T00:57:04.817Z,97581.44
2023-11-30T00:59:31.709Z,97610.50
2023-11-30T01:01:58.576Z,97626.13
2023-11-30T01:04:25.566Z,97626.13
2023-11-30T01:06:52.448Z,97650.69
2023-11-30T01:09:19.338Z,97608.09
2023-11-30T01:11:46.329Z,97626.28
2023-11-30T01:14:13.183Z,97604.69
2023-11-30T01:16:40.742Z,97644.22
2023-11-30T01:19:07.633Z,97579.97
2023-11-30T01:21:34.815Z,97592.75
2023-11-30T01:24:01.800Z,97599.72
2023-11-30T01:26:28.750Z,97626.88
2023-11-30T01:28:55.595Z,97620.19
2023-11-30T01:31:22.523Z,97590.56
2023-11-30T01:33:50.672Z,97649.09
2023-11-30T01:36:17.810Z,97590.38
2023-11-30T01:38:44.653Z,97638.34
2023-11-30T01:41:11.637Z,97651.50
2023-11-30T01:43:38.641Z,97615.28
2023-11-30T01:46:06.427Z,97634.78
2023-11-30T01:48:34.864Z,97665.72
2023-11-30T01:51:05.823Z,97601.16
2023-11-30T01:53:33.839Z,97605.84
2023-11-30T01:56:00.642Z,97667.09
2023-11-30T01:58:28.036Z,97664.56
2023-11-30T02:00:57.311Z,97627.47
2023-11-30T02:03:26.359Z,97658.81
2023-11-30T02:05:54.221Z,97666.78
2023-11-30T02:08:21.431Z,97670.00
2023-11-30T02:10:48.400Z,97629.59
2023-11-30T02:13:18.644Z,97637.56
2023-11-30T02:15:45.637Z,97683.31
2023-11-30T02:18:12.676Z,97668.38
2023-11-30T02:20:39.670Z,97712.00
2023-11-30T02:23:06.514Z,97686.84
2023-11-30T02:25:33.294Z,97633.69
2023-11-30T02:28:00.177Z,97699.25
2023-11-30T02:30:27.213Z,97695.97
2023-11-30T02:32:54.495Z,97675.28
2023-11-30T02:35:21.487Z,97525.81
2023-11-30T02:37:48.323Z,97723.97
2023-11-30T02:40:15.230Z,97696.97
2023-11-30T02:42:42.109Z,97664.31
2023-11-30T02:45:09.514Z,97669.69
2023-11-30T02:47:36.446Z,97711.28
2023-11-30T02:50:03.262Z,97702.66
2023-11-30T02:52:30.060Z,97659.56
2023-11-30T02:54:56.980Z,97723.19
2023-11-30T02:57:23.795Z,97696.94
2023-11-30T02:59:51.075Z,97709.50
2023-11-30T03:02:18.620Z,97692.09
2023-11-30T03:04:46.514Z,97719.22
2023-11-30T03:07:13.451Z,97557.19
2023-11-30T03:09:40.435Z,97716.50
2023-11-30T03:12:07.825Z,97690.63
2023-11-30T03:14:34.813Z,97718.91
2023-11-30T03:17:01.786Z,97705.78
2023-11-30T03:19:28.665Z,97702.22
2023-11-30T03:21:55.532Z,97662.56
2023-11-30T03:24:23.825Z,97716.84
2023-11-30T03:26:50.805Z,97675.47
2023-11-30T03:29:17.662Z,97733.00
2023-11-30T03:31:44.669Z,97732.38
2023-11-30T03:34:11.681Z,97734.91
2023-11-30T03:36:38.713Z,97709.97
2023-11-30T03:39:06.178Z,97737.19
2023-11-30T03:41:33.125Z,97705.69
2023-11-30T03:44:00.077Z,97727.06
2023-11-30T03:46:28.697Z,97695.69
2023-11-30T03:48:56.122Z,97741.34
2023-11-30T03:51:24.109Z,97743.03
2023-11-30T03:53:51.142Z,97744.69
2023-11-30T03:56:18.286Z,97747.19
2023-11-30T03:58:45.213Z,97730.56
2023-11-30T04:01:12.074Z,97742.22
2023-11-30T04:03:39.051Z,97735.66
2023-11-30T04:06:06.296Z,97745.84
2023-11-30T04:08:33.071Z,97713.84
2023-11-30T04:11:00.269Z,97746.03
2023-11-30T04:13:27.096Z,97711.97
2023-11-30T04:15:54.552Z,97710.03
2023-11-30T04:18:23.036Z,97775.69
2023-11-30T04:20:50.996Z,97751.16
2023-11-30T04:23:18.010Z,97740.84
2023-11-30T04:25:45.757Z,97759.19
2023-11-30T04:28:12.679Z,97790.25
2023-11-30T04:30:39.793Z,97781.03
2023-11-30T04:33:06.814Z,97771.00
2023-11-30T04:35:33.938Z,97557.44
2023-11-30T04:38:02.056Z,97723.94
2023-11-30T04:40:29.062Z,97784.44
2023-11-30T04:42:55.906Z,97796.00
2023-11-30T04:45:23.011Z,97807.00
2023-11-30T04:47:50.044Z,97804.59
2023-11-30T04:50:16.793Z,97755.66
2023-11-30T04:52:44.037Z,97771.81
2023-11-30T04:55:11.140Z,97803.03
2023-11-30T04:57:38.422Z,97808.94
2023-11-30T05:00:06.848Z,97739.38
2023-11-30T05:02:39.027Z,97808.81
2023-11-30T05:05:07.286Z,97807.84
2023-11-30T05:07:34.165Z,97820.50
2023-11-30T05:10:01.363Z,97675.41
2023-11-30T05:12:28.334Z,97765.84
2023-11-30T05:14:55.195Z,97757.84
2023-11-30T05:17:22.142Z,97829.97
2023-11-30T05:19:49.011Z,97798.81
2023-11-30T05:22:15.851Z,97754.44
2023-11-30T05:24:42.724Z,97841.72
2023-11-30T05:27:09.617Z,97827.44
2023-11-30T05:29:36.456Z,97843.44
2023-11-30T05:32:03.413Z,97855.88
2023-11-30T05:34:30.691Z,97844.00
2023-11-30T05:36:57.572Z,97851.69
2023-11-30T05:39:24.549Z,97811.28
2023-11-30T05:41:51.351Z,97735.03
2023-11-30T05:44:18.132Z,97836.59
2023-11-30T05:46:47.203Z,97820.63
2023-11-30T05:49:14.390Z,97866.31
2023-11-30T05:51:41.306Z,97879.81
2023-11-30T05:54:08.156Z,97792.59
2023-11-30T05:56:35.341Z,97874.81
2023-11-30T05:59:02.244Z,97830.22
2023-11-30T06:01:28.973Z,97868.97
2023-11-30T06:03:56.805Z,97851.56
2023-11-30T06:06:23.708Z,97887.03
2023-11-30T06:08:50.898Z,97887.75
2023-11-30T06:11:18.253Z,97919.78
2023-11-30T06:13:46.469Z,97915.38
2023-11-30T06:16:13.659Z,97897.50
2023-11-30T06:18:40.699Z,97907.44
2023-11-30T06:21:10.611Z,97938.84
2023-11-30T06:23:38.425Z,97886.97
2023-11-30T06:26:06.372Z,97891.97
2023-11-30T06:28:33.163Z,97917.72
2023-11-30T06:30:59.967Z,97930.16
2023-11-30T06:33:27.214Z,97844.84
2023-11-30T06:35:54.084Z,97924.63
2023-11-30T06:38:20.929Z,97933.56
2023-11-30T06:40:50.032Z,97926.78
2023-11-30T06:43:16.904Z,97945.97
2023-11-30T06:45:44.263Z,97953.75
2023-11-30T06:48:11.452Z,97913.19
2023-11-30T06:50:38.335Z,97932.69
2023-11-30T06:53:05.283Z,97964.75
2023-11-30T06:55:32.210Z,97932.25
2023-11-30T06:57:59.870Z,97923.03
2023-11-30T07:00:28.129Z,97961.34
2023-11-30T07:02:55.402Z,97969.00
2023-11-30T07:05:22.210Z,97947.59
2023-11-30T07:07:49.713Z,97981.16
2023-11-30T07:10:16.765Z,97981.41
2023-11-30T07:12:44.132Z,97976.59
2023-11-30T07:15:11.154Z,97957.50
2023-11-30T07:17:38.242Z,97991.72
2023-11-30T07:20:05.910Z,97994.13
2023-11-30T07:22:32.803Z,98004.19
2023-11-30T07:24:59.629Z,97968.56
2023-11-30T07:27:27.592Z,97934.41
2023-11-30T07:29:54.568Z,97995.25
2023-11-30T07:32:21.576Z,97952.03
2023-11-30T07:34:48.508Z,98026.41
2023-11-30T07:37:19.053Z,98035.28
2023-11-30T07:39:46.284Z,98037.56
2023-11-30T07:42:25.879Z,97997.97
2023-11-30T07:44:59.245Z,98042.06
2023-11-30T07:47:26.119Z,98038.75
2023-11-30T07:49:53.133Z,98015.72
2023-11-30T07:52:20.002Z,97792.28
2023-11-30T07:54:48.073Z,98047.75
2023-11-30T07:57:14.945Z,98049.78
2023-11-30T07:59:41.839Z,98054.31
2023-11-30T08:02:09.566Z,98060.50
2023-11-30T08:04:39.934Z,97989.06
2023-11-30T08:07:06.717Z,98053.47
2023-11-30T08:09:33.567Z,97893.34
2023-11-30T08:12:00.643Z,98031.09
2023-11-30T08:14:27.590Z,98065.34
2023-11-30T08:16:54.565Z,98103.88
2023-11-30T08:19:22.383Z,98037.69
2023-11-30T08:21:50.242Z,98038.41
2023-11-30T08:24:17.208Z,98067.56
2023-11-30T08:26:44.075Z,98029.16
2023-11-30T08:29:10.934Z,98085.00
2023-11-30T08:31:38.053Z,97965.53
2023-11-30T08:34:05.205Z,98087.84
2023-11-30T08:36:32.041Z,98069.91
2023-11-30T08:38:59.050Z,98090.72
2023-11-30T08:41:26.032Z,98075.97
2023-11-30T08:43:53.143Z,98017.97
2023-11-30T08:46:20.433Z,98080.94
2023-11-30T08:48:47.531Z,98109.69
2023-11-30T08:51:15.380Z,98067.78
2023-11-30T08:53:42.325Z,98062.69
2023-11-30T08:56:09.848Z,97968.03
2023-11-30T08:58:39.638Z,98077.78
2023-11-30T09:01:06.990Z,98075.47
2023-11-30T09:03:33.965Z,98083.53
2023-11-30T09:06:00.750Z,98081.78
2023-11-30T09:08:27.656Z,98081.53
2023-11-30T09:10:54.573Z,98084.88
2023-11-30T09:13:21.451Z,98035.13
2023-11-30T09:15:49.050Z,98094.22
2023-11-30T09:18:16.068Z,97985.38
2023-11-30T09:20:43.117Z,98075.97
2023-11-30T09:23:10.017Z,98107.28
2023-11-30T09:25:36.848Z,98107.34
2023-11-30T09:28:03.955Z,98104.16
2023-11-30T09:30:31.044Z,98095.78
2023-11-30T09:32:58.084Z,98100.91
2023-11-30T09:35:25.601Z,98103.38
2023-11-30T09:37:53.703Z,97998.44
2023-11-30T09:40:21.253Z,98068.59
2023-11-30T09:42:48.225Z,98000.06
2023-11-30T09:45:16.027Z,98080.59
2023-11-30T09:47:43.047Z,98046.47
2023-11-30T09:50:11.977Z,98081.72
2023-11-30T09:52:39.116Z,98102.53
2023-11-30T09:55:06.982Z,98058.75
2023-11-30T09:57:33.828Z,98099.25
2023-11-30T10:00:01.491Z,98063.44
2023-11-30T10:02:31.043Z,98088.38
2023-11-30T10:04:58.157Z,98091.81
2023-11-30T10:07:25.188Z,98093.25
2023-11-30T10:09:52.113Z,98093.81
2023-11-30T10:12:21.148Z,98101.59
2023-11-30T10:14:48.249Z,98089.31
2023-11-30T10:17:15.184Z,98091.69
2023-11-30T10:19:42.478Z,98111.53
2023-11-30T10:22:09.479Z,98104.94
2023-11-30T10:24:36.308Z,98020.16
2023-11-30T10:27:06.504Z,98073.25
2023-11-30T10:29:38.667Z,98155.16
2023-11-30T10:32:08.404Z,98107.19
2023-11-30T10:34:47.389Z,98110.81
2023-11-30T10:37:20.939Z,98020.63
2023-11-30T10:39:55.967Z,97993.06
2023-11-30T10:42:24.803Z,98114.03
2023-11-30T10:44:54.051Z,98098.91
2023-11-30T10:47:22.110Z,98078.00
2023-11-30T10:49:50.658Z,98044.09
2023-11-30T10:52:20.706Z,98164.28
2023-11-30T10:54:54.925Z,98062.28
2023-11-30T10:57:23.384Z,98121.94
2023-11-30T10:59:58.053Z,98090.34
2023-11-30T11:02:25.434Z,98119.50
2023-11-30T11:04:58.306Z,98068.22
2023-11-30T11:07:25.288Z,98104.66
2023-11-30T11:09:54.662Z,98106.91
2023-11-30T11:12:26.283Z,98123.75
2023-11-30T11:15:14.749Z,98122.66
2023-11-30T11:17:54.526Z,98118.09
2023-11-30T11:20:27.524Z,98120.25
2023-11-30T11:23:06.059Z,98118.34
2023-11-30T11:25:51.224Z,98096.31
2023-11-30T11:28:18.610Z,98127.16
2023-11-30T11:30:51.957Z,98069.03
2023-11-30T11:33:20.731Z,98105.22
2023-11-30T11:35:48.455Z,98110.13
2023-11-30T11:38:15.425Z,98119.88
2023-11-30T11:40:42.959Z,98075.31
2023-11-30T11:43:10.248Z,98107.78
2023-11-30T11:45:38.400Z,98137.59
2023-11-30T11:48:05.957Z,98031.72
2023-11-30T11:50:32.844Z,98120.91
2023-11-30T11:53:07.264Z,98062.59
2023-11-30T11:55:34.315Z,98098.50
2023-11-30T11:58:01.311Z,98126.56
2023-11-30T12:00:28.298Z,98125.56
2023-11-30T12:03:06.499Z,98062.28
2023-11-30T12:05:33.492Z,98122.25
2023-11-30T12:08:01.496Z,98123.94
2023-11-30T12:10:42.301Z,98121.16
2023-11-30T12:13:12.109Z,98113.97
2023-11-30T12:15:39.351Z,98088.75
2023-11-30T12:18:06.858Z,98129.44
2023-11-30T12:20:34.551Z,98130.06
2023-11-30T12:23:02.113Z,98127.47
2023-11-30T12:25:29.800Z,98067.63
2023-11-30T12:27:57.108Z,98100.34
2023-11-30T12:30:26.921Z,98129.81
2023-11-30T12:32:54.042Z,98144.59
2023-11-30T12:35:21.025Z,98122.91
2023-11-30T12:37:49.613Z,98078.00
2023-11-30T12:40:16.872Z,97982.25
2023-11-30T12:42:44.535Z,98135.19
2023-11-30T12:45:12.143Z,98137.00
2023-11-30T12:47:42.076Z,98126.22
2023-11-30T12:50:11.076Z,98089.53
2023-11-30T12:52:38.171Z,98094.22
2023-11-30T12:55:06.036Z,98131.47
2023-11-30T12:57:38.691Z,98155.75
2023-11-30T13:00:15.532Z,97991.41
2023-11-30T13:02:46.378Z,98151.72
2023-11-30T13:05:14.334Z,98093.56
2023-11-30T13:07:41.404Z,98087.81
2023-11-30T13:10:12.701Z,98156.03
2023-11-30T13:12:40.595Z,98157.44
2023-11-30T13:15:11.419Z,98161.06
2023-11-30T13:17:39.657Z,98142.81
2023-11-30T13:20:12.784Z,98168.91
2023-11-30T13:22:44.707Z,98159.72
2023-11-30T13:25:14.932Z,98146.38
2023-11-30T13:27:46.468Z,98151.13
2023-11-30T13:30:18.459Z,98114.66
2023-11-30T13:32:46.221Z,98145.38
2023-11-30T13:35:13.299Z,98161.84
2023-11-30T13:37:40.400Z,98145.09
2023-11-30T13:40:08.888Z,97968.97
2023-11-30T13:42:36.064Z,98149.03
2023-11-30T13:45:03.836Z,98158.47
2023-11-30T13:47:31.860Z,98130.94
2023-11-30T13:49:58.985Z,98150.31
2023-11-30T13:52:25.949Z,98131.06
2023-11-30T13:54:53.045Z,98185.16
2023-11-30T13:57:20.145Z,98157.41
2023-11-30T13:59:47.037Z,98181.66
2023-11-30T14:02:13.976Z,98151.97
2023-11-30T14:04:40.857Z,98166.53
2023-11-30T14:07:07.776Z,98160.22
2023-11-30T14:09:34.537Z,98129.53
2023-11-30T14:12:01.476Z,98174.97
2023-11-30T14:14:28.318Z,98167.09
2023-11-30T14:16:55.261Z,98118.06
2023-11-30T14:19:22.391Z,98172.06
2023-11-30T14:21:49.453Z,98020.16
2023-11-30T14:24:16.895Z,98184.13
2023-11-30T14:26:43.827Z,98241.53
2023-11-30T14:29:10.926Z,98100.00
2023-11-30T14:31:37.833Z,98209.66
2023-11-30T14:34:05.007Z,98197.13
2023-11-30T14:36:32.323Z,98197.03
2023-11-30T14:38:59.372Z,98139.63
2023-11-30T14:41:26.259Z,98207.09
2023-11-30T14:43:53.100Z,98144.53
2023-11-30T14:46:19.996Z,98189.50
2023-11-30T14:48:47.060Z,98175.25
2023-11-30T14:51:14.777Z,98189.53
2023-11-30T14:53:42.067Z,98184.41
2023-11-30T14:56:09.441Z,98198.72
2023-11-30T14:58:36.279Z,98163.28
2023-11-30T15:01:03.572Z,98197.75
2023-11-30T15:03:32.629Z,98146.56
2023-11-30T15:05:59.589Z,98204.38
2023-11-30T15:08:26.747Z,98152.75
2023-11-30T15:10:53.704Z,98202.63
2023-11-30T15:13:21.522Z,98216.13
2023-11-30T15:15:48.476Z,98192.78
2023-11-30T15:18:15.697Z,98199.00
2023-11-30T15:20:42.736Z,98212.19
2023-11-30T15:23:09.637Z,98074.81
2023-11-30T15:25:36.551Z,98139.66
2023-11-30T15:28:05.039Z,98210.44
2023-11-30T15:30:32.146Z,98207.19
2023-11-30T15:32:59.061Z,98048.00
2023-11-30T15:35:26.101Z,98220.63
2023-11-30T15:37:53.596Z,98190.63
2023-11-30T15:40:22.396Z,98202.03
2023-11-30T15:42:51.970Z,98179.63
2023-11-30T15:45:22.665Z,98187.75
2023-11-30T15:47:51.176Z,98131.09
2023-11-30T15:50:18.628Z,98195.91
2023-11-30T15:52:45.690Z,98197.34
2023-11-30T15:55:13.742Z,98184.06
2023-11-30T15:57:42.019Z,98199.84
2023-11-30T16:00:15.435Z,98160.88
2023-11-30T16:02:44.409Z,98194.06
2023-11-30T16:05:13.128Z,98185.41
2023-11-30T16:07:40.030Z,98146.88
2023-11-30T16:10:07.706Z,98124.34
2023-11-30T16:12:34.949Z,98201.28
2023-11-30T16:15:02.046Z,98198.00
2023-11-30T16:17:28.878Z,98179.34
2023-11-30T16:19:55.733Z,98170.28
2023-11-30T16:22:23.194Z,97965.03
2023-11-30T16:24:50.178Z,98195.50
2023-11-30T16:27:17.327Z,98201.34
2023-11-30T16:29:45.076Z,98188.81
2023-11-30T16:32:12.125Z,98146.66
2023-11-30T16:34:38.999Z,98169.09
2023-11-30T16:37:06.394Z,98159.19
2023-11-30T16:39:33.242Z,98201.28
2023-11-30T16:42:00.259Z,98171.47
2023-11-30T16:44:27.775Z,98135.75
2023-11-30T16:46:55.603Z,98152.75
2023-11-30T16:49:22.569Z,98147.75
2023-11-30T16:51:55.205Z,98175.94
2023-11-30T16:54:24.711Z,98198.38
2023-11-30T16:56:51.522Z,98182.69
2023-11-30T16:59:18.648Z,98173.69
2023-11-30T17:01:45.858Z,98201.25
2023-11-30T17:04:13.103Z,98136.66
2023-11-30T17:06:40.027Z,98214.34
2023-11-30T17:09:07.134Z,98157.72
2023-11-30T17:11:33.939Z,98120.00
2023-11-30T17:14:01.061Z,98211.78
2023-11-30T17:16:28.586Z,98177.78
2023-11-30T17:18:55.541Z,98220.44
2023-11-30T17:21:22.698Z,98213.81
2023-11-30T17:23:49.774Z,98056.41
2023-11-30T17:26:16.853Z,98206.13
2023-11-30T17:28:44.550Z,98205.06
2023-11-30T17:31:11.668Z,98169.09
2023-11-30T17:33:38.945Z,98193.88
2023-11-30T17:36:06.519Z,98084.03
2023-11-30T17:38:33.404Z,98209.84
2023-11-30T17:41:00.210Z,98188.72
2023-11-30T17:43:27.168Z,98165.91
2023-11-30T17:45:54.173Z,98174.25
2023-11-30T17:48:21.106Z,98181.22
2023-11-30T17:50:48.148Z,98158.63
2023-11-30T17:53:14.979Z,98165.19
2023-11-30T17:55:42.280Z,98100.41
2023-11-30T17:58:09.273Z,98189.53
2023-11-30T18:00:36.524Z,98184.41
2023-11-30T18:03:03.793Z,98166.81
2023-11-30T18:05:30.608Z,98178.47
2023-11-30T18:08:00.609Z,98180.78
2023-11-30T18:10:27.531Z,98176.53
2023-11-30T18:12:54.408Z,98126.66
2023-11-30T18:15:21.380Z,98191.84
2023-11-30T18:17:48.267Z,98061.25
2023-11-30T18:20:15.271Z,98174.84
2023-11-30T18:22:42.284Z,98169.78
2023-11-30T18:25:10.655Z,98160.56
2023-11-30T18:27:37.687Z,98165.25
2023-11-30T18:30:05.092Z,98161.78
2023-11-30T18:32:33.156Z,98047.72
2023-11-30T18:34:59.996Z,98140.63
2023-11-30T18:37:27.063Z,98100.00
2023-11-30T18:39:54.102Z,98125.00
2023-11-30T18:42:21.596Z,98137.44
2023-11-30T18:44:48.358Z,98154.31
2023-11-30T18:47:15.881Z,98179.13
2023-11-30T18:49:43.007Z,98185.78
2023-11-30T18:52:10.099Z,98110.69
2023-11-30T18:54:37.232Z,98181.31
2023-11-30T18:57:04.428Z,98188.09
2023-11-30T18:59:33.358Z,98186.56
2023-11-30T19:02:00.497Z,98177.53
2023-11-30T19:04:28.321Z,98186.63
2023-11-30T19:06:55.320Z,98182.53
2023-11-30T19:09:22.272Z,98144.38
2023-11-30T19:11:50.423Z,98138.28
2023-11-30T19:14:17.258Z,98172.97
2023-11-30T19:16:45.901Z,98177.00
2023-11-30T19:19:13.116Z,98178.50
2023-11-30T19:21:42.366Z,98179.09
2023-11-30T19:24:13.837Z,98145.72
2023-11-30T19:26:42.441Z,97766.72
2023-11-30T19:29:19.671Z,98167.81
2023-11-30T19:31:46.666Z,98179.22
2023-11-30T19:34:15.349Z,98128.28
2023-11-30T19:36:43.094Z,98174.44
2023-11-30T19:39:10.400Z,98179.44
2023-11-30T19:41:37.461Z,98135.13
2023-11-30T19:44:04.707Z,98176.81
2023-11-30T19:46:31.891Z,98176.72
2023-11-30T19:48:59.121Z,98158.50
2023-11-30T19:51:26.261Z,98148.38
2023-11-30T19:53:54.663Z,98113.19
2023-11-30T19:56:22.081Z,98179.59
2023-11-30T19:58:48.923Z,98071.31
2023-11-30T20:01:25.426Z,98183.19
2023-11-30T20:03:52.652Z,98177.94
2023-11-30T20:06:20.376Z,98152.03
2023-11-30T20:08:47.425Z,98170.59
2023-11-30T20:11:17.134Z,98134.06
2023-11-30T20:13:44.096Z,98125.25
2023-11-30T20:16:12.058Z,98164.28
2023-11-30T20:18:39.135Z,98162.66
2023-11-30T20:21:07.092Z,98183.84
2023-11-30T20:23:34.008Z,98180.53
2023-11-30T20:26:01.518Z,98178.72
2023-11-30T20:28:28.463Z,98164.59
2023-11-30T20:30:55.419Z,98181.41
2023-11-30T20:33:22.333Z,98147.31
2023-11-30T20:35:49.245Z,98165.34
2023-11-30T20:38:16.225Z,98165.91
2023-11-30T20:40:43.225Z,98082.59
2023-11-30T20:43:10.309Z,98117.22
2023-11-30T20:45:38.113Z,98163.97
2023-11-30T20:48:06.861Z,98156.75
2023-11-30T20:50:33.934Z,98144.09
2023-11-30T20:53:03.702Z,98139.47
2023-11-30T20:55:30.645Z,98144.19
2023-11-30T20:57:57.924Z,98106.75
2023-11-30T21:00:24.987Z,97926.75
2023-11-30T21:02:52.096Z,98153.00
2023-11-30T21:05:19.440Z,98138.38
2023-11-30T21:07:46.402Z,98163.84
2023-11-30T21:10:15.044Z,98152.13
2023-11-30T21:12:42.000Z,98120.84
2023-11-30T21:15:09.493Z,98147.66
2023-11-30T21:17:36.546Z,98132.78
2023-11-30T21:20:04.952Z,98078.91
2023-11-30T21:22:32.882Z,98088.88
2023-11-30T21:24:59.846Z,98122.91
2023-11-30T21:27:27.069Z,98128.34
2023-11-30T21:29:55.340Z,97984.34
2023-11-30T21:32:22.533Z,98143.88
2023-11-30T21:34:49.928Z,98138.41
2023-11-30T21:37:17.065Z,98081.22
2023-11-30T21:39:44.462Z,98124.00
2023-11-30T21:42:11.549Z,98080.50
2023-11-30T21:44:40.254Z,98126.97
2023-11-30T21:47:11.601Z,98084.91
2023-11-30T21:49:40.812Z,98090.84
2023-11-30T21:52:08.248Z,98078.78
2023-11-30T21:54:35.260Z,97965.16
2023-11-30T21:57:02.269Z,98010.47
2023-11-30T21:59:29.223Z,98116.91
2023-11-30T22:01:56.448Z,98075.41
2023-11-30T22:04:23.501Z,98080.97
2023-11-30T22:06:50.577Z,98081.22
2023-11-30T22:09:18.308Z,98077.81
2023-11-30T22:11:46.194Z,98090.06
2023-11-30T22:14:13.168Z,98048.44
2023-11-30T22:16:41.709Z,98053.81
2023-11-30T22:19:08.933Z,98065.56
2023-11-30T22:21:36.165Z,98087.81
2023-11-30T22:24:03.078Z,98065.28
2023-11-30T22:26:30.015Z,98050.66
2023-11-30T22:28:57.256Z,98081.44
2023-11-30T22:31:24.722Z,98060.22
2023-11-30T22:33:51.857Z,98075.00
2023-11-30T22:36:18.845Z,98081.38
2023-11-30T22:38:46.445Z,98058.72
2023-11-30T22:41:14.459Z,98082.94
2023-11-30T22:43:41.693Z,98026.34
2023-11-30T22:46:17.410Z,98079.41
2023-11-30T22:48:45.347Z,98088.31
2023-11-30T22:51:12.315Z,98085.19
2023-11-30T22:53:39.181Z,98052.22
2023-11-30T22:56:06.520Z,98073.66
2023-11-30T22:58:33.649Z,98043.78
2023-11-30T23:01:01.773Z,97989.06
2023-11-30T23:03:28.962Z,98059.06
2023-11-30T23:05:56.135Z,98040.78
2023-11-30T23:08:23.026Z,98077.97
2023-11-30T23:10:50.213Z,98048.66
2023-11-30T23:13:17.139Z,98080.56
2023-11-30T23:15:44.547Z,98047.91
2023-11-30T23:18:11.696Z,98077.09
2023-11-30T23:20:39.234Z,98090.41
2023-11-30T23:23:06.307Z,98087.97
2023-11-30T23:25:33.266Z,98086.25
2023-11-30T23:28:00.769Z,98091.50
2023-11-30T23:30:27.992Z,98089.84
2023-11-30T23:32:55.936Z,98093.00
2023-11-30T23:35:23.217Z,98078.28
2023-11-30T23:37:50.227Z,98085.34
2023-11-30T23:40:17.186Z,98088.59
2023-11-30T23:42:44.145Z,98080.81
2023-11-30T23:45:11.353Z,98070.03
2023-11-30T23:47:39.345Z,98087.47
2023-11-30T23:50:06.793Z,98096.00
2023-11-30T23:52:33.715Z,98087.53
2023-11-30T23:55:00.872Z,98042.00
2023-11-30T23:57:28.148Z,98082.44
2023-11-30T23:59:55.349Z,98027.81
